Time;durP1;ratioP1;P1;durP2;ratioP2;P2;SDS_P1;SDS_P2;PMS_P1;PMS_P2;Temp;Humidity;BMP_temperature;BMP_pressure;BME280_temperature;BME280_humidity;BME280_pressure;Samples;Min_cycle;Max_cycle;Signal;HPM_P1;HPM_P2
2022/11/25 00:01:06;;;;;;;38.20;34.10;;;;;;;;;;5052451;28;20610;-55
2022/11/25 00:03:31;;;;;;;49.00;37.77;;;;;;;;;;5052073;28;20340;-56
2022/11/25 00:05:56;;;;;;;39.77;35.20;;;;;;;;;;5062282;28;20623;-55
2022/11/25 00:08:21;;;;;;;50.03;38.60;;;;;;;;;;5053345;28;20554;-56
2022/11/25 00:10:47;;;;;;;40.03;35.83;;;;;;;;;;5071433;28;20175;-56
2022/11/25 00:13:12;;;;;;;44.40;39.72;;;;;;;;;;5070757;28;20667;-55
2022/11/25 00:15:37;;;;;;;37.63;34.00;;;;;;;;;;5072681;28;20255;-56
2022/11/25 00:18:02;;;;;;;42.40;35.47;;;;;;;;;;5071706;28;20228;-56
2022/11/25 00:20:27;;;;;;;35.80;32.00;;;;;;;;;;5065010;28;20178;-57
2022/11/25 00:22:53;;;;;;;44.23;39.83;;;;;;;;;;5061258;28;20209;-56
2022/11/25 00:25:18;;;;;;;36.27;31.67;;;;;;;;;;5055709;28;20193;-56
2022/11/25 00:27:43;;;;;;;38.93;35.43;;;;;;;;;;5061612;28;20262;-56
2022/11/25 00:30:08;;;;;;;34.60;31.00;;;;;;;;;;5065002;28;20580;-56
2022/11/25 00:32:34;;;;;;;41.10;30.90;;;;;;;;;;5069355;28;20184;-55
2022/11/25 00:34:59;;;;;;;36.95;33.40;;;;;;;;;;5077805;28;20185;-56
2022/11/25 00:37:24;;;;;;;37.83;32.70;;;;;;;;;;5070330;28;20645;-56
2022/11/25 00:39:50;;;;;;;36.27;32.60;;;;;;;;;;5055965;28;20836;-56
2022/11/25 00:44:59;;;;;;;41.47;37.20;;;;;;;;;;5081235;28;20678;-56
2022/11/25 00:47:24;;;;;;;42.10;35.10;;;;;;;;;;5074092;28;20977;-57
2022/11/25 00:49:50;;;;;;;40.47;36.57;;;;;;;;;;5068465;28;20185;-57
2022/11/25 00:52:20;;;;;;;36.67;33.17;;;;;;;;;;5061758;28;20179;-56
2022/11/25 00:54:46;;;;;;;34.70;31.00;;;;;;;;;;5063096;28;21175;-55
2022/11/25 00:57:11;;;;;;;36.53;32.77;;;;;;;;;;5060121;28;20633;-55
2022/11/25 00:59:36;;;;;;;37.03;31.17;;;;;;;;;;5068553;28;21163;-54
2022/11/25 01:02:02;;;;;;;37.57;34.10;;;;;;;;;;5063323;28;20202;-56
2022/11/25 01:04:27;;;;;;;35.90;32.50;;;;;;;;;;5065233;28;20195;-56
2022/11/25 01:06:53;;;;;;;35.17;31.50;;;;;;;;;;5069208;28;20174;-56
2022/11/25 01:09:18;;;;;;;32.83;29.60;;;;;;;;;;5067702;28;20181;-56
2022/11/25 01:11:43;;;;;;;34.03;28.90;;;;;;;;;;5053125;28;20683;-56
2022/11/25 01:14:08;;;;;;;32.80;29.87;;;;;;;;;;5055626;28;20603;-56
2022/11/25 01:16:34;;;;;;;33.90;30.40;;;;;;;;;;5069011;28;20174;-56
2022/11/25 01:18:59;;;;;;;35.93;31.27;;;;;;;;;;5060584;28;20230;-58
2022/11/25 01:21:25;;;;;;;37.00;33.20;;;;;;;;;;5072154;28;20185;-56
2022/11/25 01:23:51;;;;;;;31.23;28.10;;;;;;;;;;5074320;28;20638;-55
2022/11/25 01:26:21;;;;;;;29.20;25.43;;;;;;;;;;5075614;28;20611;-55
2022/11/25 01:28:46;;;;;;;32.80;29.80;;;;;;;;;;5066740;28;20518;-56
2022/11/25 01:31:13;;;;;;;33.90;30.53;;;;;;;;;;5070185;28;20607;-56
2022/11/25 01:33:39;;;;;;;34.87;31.10;;;;;;;;;;5064198;28;20206;-56
2022/11/25 01:36:05;;;;;;;37.80;31.50;;;;;;;;;;5065936;28;20631;-57
2022/11/25 01:38:31;;;;;;;36.70;31.37;;;;;;;;;;5061653;28;20184;-55
2022/11/25 01:40:56;;;;;;;30.47;27.30;;;;;;;;;;5069054;28;20616;-56
2022/11/25 01:43:21;;;;;;;34.90;31.33;;;;;;;;;;5056691;28;21026;-55
2022/11/25 01:45:46;;;;;;;37.50;32.47;;;;;;;;;;5067480;28;20660;-56
2022/11/25 01:48:15;;;;;;;34.80;31.10;;;;;;;;;;5072014;28;20199;-56
2022/11/25 01:50:41;;;;;;;36.40;32.17;;;;;;;;;;5068975;28;20184;-56
2022/11/25 01:53:07;;;;;;;37.27;32.10;;;;;;;;;;5058959;28;20965;-56
2022/11/25 01:55:35;;;;;;;42.73;35.20;;;;;;;;;;5064021;28;20838;-56
2022/11/25 01:58:09;;;;;;;31.37;28.17;;;;;;;;;;5070907;28;20603;-55
2022/11/25 02:00:36;;;;;;;36.23;31.50;;;;;;;;;;5059408;28;20616;-56
2022/11/25 02:03:01;;;;;;;36.43;32.53;;;;;;;;;;5068839;28;20642;-55
2022/11/25 02:05:50;;;;;;;37.80;32.90;;;;;;;;;;5068458;28;20597;-55
2022/11/25 02:08:17;;;;;;;39.23;33.00;;;;;;;;;;5066360;28;20198;-56
2022/11/25 02:10:43;;;;;;;38.03;32.03;;;;;;;;;;5062751;28;20653;-55
2022/11/25 02:13:09;;;;;;;36.70;32.50;;;;;;;;;;5059934;28;20649;-55
2022/11/25 02:15:34;;;;;;;33.67;29.97;;;;;;;;;;5062775;28;20633;-55
2022/11/25 02:18:00;;;;;;;34.70;30.87;;;;;;;;;;5062286;28;20219;-56
2022/11/25 02:20:25;;;;;;;33.10;28.17;;;;;;;;;;5073304;28;20193;-55
2022/11/25 02:22:57;;;;;;;34.47;30.80;;;;;;;;;;5073048;28;20214;-55
2022/11/25 02:25:27;;;;;;;33.40;29.00;;;;;;;;;;5062003;28;20208;-56
2022/11/25 02:28:18;;;;;;;31.53;27.17;;;;;;;;;;5063748;28;20617;-56
2022/11/25 02:30:44;;;;;;;32.10;28.93;;;;;;;;;;5070566;28;20608;-58
2022/11/25 02:33:09;;;;;;;30.50;27.00;;;;;;;;;;5065860;28;20603;-56
2022/11/25 02:35:36;;;;;;;30.80;27.50;;;;;;;;;;5068873;28;20728;-56
2022/11/25 02:38:09;;;;;;;31.60;28.17;;;;;;;;;;5069063;28;20234;-58
2022/11/25 02:40:38;;;;;;;31.83;28.10;;;;;;;;;;5069913;28;20975;-56
2022/11/25 02:43:03;;;;;;;33.83;28.23;;;;;;;;;;5053186;28;20706;-55
2022/11/25 02:45:32;;;;;;;28.67;25.67;;;;;;;;;;5073953;28;20704;-55
2022/11/25 02:47:57;;;;;;;34.93;31.60;;;;;;;;;;5062012;28;20173;-56
2022/11/25 02:50:24;;;;;;;33.70;30.20;;;;;;;;;;5060696;28;21302;-56
2022/11/25 02:52:49;;;;;;;32.23;28.93;;;;;;;;;;5065603;28;20271;-56
2022/11/25 02:55:14;;;;;;;32.10;29.00;;;;;;;;;;5060931;28;21219;-55
2022/11/25 02:57:39;;;;;;;38.60;28.80;;;;;;;;;;5059424;28;20195;-55
2022/11/25 03:00:05;;;;;;;35.10;29.53;;;;;;;;;;5059909;28;20188;-55
2022/11/25 03:02:30;;;;;;;34.97;31.77;;;;;;;;;;5065863;28;20205;-55
2022/11/25 03:04:55;;;;;;;34.30;30.73;;;;;;;;;;5057120;28;20173;-56
2022/11/25 03:07:20;;;;;;;30.97;27.67;;;;;;;;;;5052265;28;20233;-56
2022/11/25 03:09:45;;;;;;;37.43;33.83;;;;;;;;;;5052347;28;20194;-55
2022/11/25 03:12:20;;;;;;;35.60;30.83;;;;;;;;;;5052449;28;20203;-56
2022/11/25 03:14:45;;;;;;;31.87;27.50;;;;;;;;;;5063260;28;20790;-56
2022/11/25 03:17:10;;;;;;;29.90;26.70;;;;;;;;;;5064539;28;20613;-56
2022/11/25 03:19:36;;;;;;;35.37;31.97;;;;;;;;;;5056757;28;20231;-57
2022/11/25 03:22:01;;;;;;;32.33;29.07;;;;;;;;;;5069861;28;20209;-57
2022/11/25 03:24:26;;;;;;;29.03;25.93;;;;;;;;;;5069429;28;20217;-56
2022/11/25 03:26:51;;;;;;;32.43;29.43;;;;;;;;;;5069451;28;20202;-56
2022/11/25 03:29:17;;;;;;;29.83;26.70;;;;;;;;;;5056061;28;20261;-56
2022/11/25 03:31:42;;;;;;;31.60;28.43;;;;;;;;;;5052154;28;20226;-56
2022/11/25 03:34:07;;;;;;;32.17;29.43;;;;;;;;;;5066211;28;20548;-56
2022/11/25 03:36:32;;;;;;;31.63;28.40;;;;;;;;;;5064653;28;20174;-56
2022/11/25 03:38:57;;;;;;;37.60;33.93;;;;;;;;;;5070345;28;20251;-56
2022/11/25 03:41:22;;;;;;;29.60;26.70;;;;;;;;;;5066949;28;20655;-56
2022/11/25 03:43:48;;;;;;;33.23;29.87;;;;;;;;;;5063432;28;20210;-55
2022/11/25 03:46:13;;;;;;;31.07;28.13;;;;;;;;;;5066317;28;20287;-55
2022/11/25 03:48:38;;;;;;;30.17;26.97;;;;;;;;;;5062292;28;20737;-56
2022/11/25 03:51:03;;;;;;;28.40;25.50;;;;;;;;;;5069993;28;20160;-56
2022/11/25 03:53:29;;;;;;;31.60;28.60;;;;;;;;;;5069868;28;20186;-55
2022/11/25 03:55:54;;;;;;;29.47;26.37;;;;;;;;;;5070094;28;20182;-55
2022/11/25 03:58:19;;;;;;;28.13;25.67;;;;;;;;;;5068187;28;20238;-57
2022/11/25 04:00:44;;;;;;;27.00;24.13;;;;;;;;;;5070021;28;20202;-55
2022/11/25 04:03:09;;;;;;;27.30;24.30;;;;;;;;;;5055267;28;20212;-56
2022/11/25 04:05:34;;;;;;;26.37;23.63;;;;;;;;;;5057958;28;20266;-55
2022/11/25 04:07:59;;;;;;;30.80;27.50;;;;;;;;;;5055754;28;20177;-56
2022/11/25 04:10:25;;;;;;;28.67;25.90;;;;;;;;;;5069654;28;20203;-55
2022/11/25 04:12:51;;;;;;;31.43;27.37;;;;;;;;;;5062679;28;20206;-56
2022/11/25 04:15:17;;;;;;;32.57;29.47;;;;;;;;;;5057363;28;20263;-55
2022/11/25 04:17:42;;;;;;;32.47;29.17;;;;;;;;;;5058334;28;20691;-55
2022/11/25 04:20:08;;;;;;;28.33;25.43;;;;;;;;;;5062429;28;20636;-55
2022/11/25 04:22:33;;;;;;;30.07;27.40;;;;;;;;;;5050248;28;20274;-56
2022/11/25 04:24:59;;;;;;;28.37;25.50;;;;;;;;;;5061120;28;20192;-63
2022/11/25 04:27:24;;;;;;;29.73;26.50;;;;;;;;;;5064970;28;20651;-56
2022/11/25 04:29:49;;;;;;;31.93;28.67;;;;;;;;;;5075837;28;20265;-56
2022/11/25 04:32:14;;;;;;;29.27;26.17;;;;;;;;;;5072949;28;20189;-59
2022/11/25 04:34:39;;;;;;;27.67;24.87;;;;;;;;;;5070360;28;20263;-57
2022/11/25 04:37:05;;;;;;;29.40;26.33;;;;;;;;;;5066769;28;20236;-56
2022/11/25 04:39:30;;;;;;;31.37;26.70;;;;;;;;;;5062042;28;20180;-56
2022/11/25 04:42:30;;;;;;;28.03;25.27;;;;;;;;;;5067385;28;20203;-56
2022/11/25 04:44:40;;;;;;;28.10;25.40;;;;;;;;;;5069361;28;20182;-56
2022/11/25 04:47:05;;;;;;;27.67;25.07;;;;;;;;;;5054323;28;20610;-56
2022/11/25 04:49:30;;;;;;;24.30;21.90;;;;;;;;;;5059938;28;20165;-55
2022/11/25 04:51:56;;;;;;;26.47;23.87;;;;;;;;;;5069046;28;20201;-56
2022/11/25 04:54:21;;;;;;;27.50;24.67;;;;;;;;;;5069976;28;20595;-56
2022/11/25 04:56:46;;;;;;;27.97;23.80;;;;;;;;;;5071967;28;20191;-55
2022/11/25 05:01:55;;;;;;;28.50;25.50;;;;;;;;;;5060458;28;20255;-57
2022/11/25 05:04:20;;;;;;;25.20;22.80;;;;;;;;;;5074521;28;20743;-57
2022/11/25 05:06:45;;;;;;;26.57;23.97;;;;;;;;;;5057520;28;20180;-58
2022/11/25 05:09:10;;;;;;;27.07;24.57;;;;;;;;;;5064609;28;20661;-56
2022/11/25 05:11:36;;;;;;;27.47;24.97;;;;;;;;;;5073189;28;20418;-55
2022/11/25 05:14:01;;;;;;;27.33;24.90;;;;;;;;;;5074015;28;20196;-55
2022/11/25 05:16:26;;;;;;;24.20;21.80;;;;;;;;;;5074476;28;20179;-56
2022/11/25 05:18:51;;;;;;;26.10;23.63;;;;;;;;;;5061087;28;20765;-56
2022/11/25 05:21:16;;;;;;;24.73;22.40;;;;;;;;;;5064997;28;20224;-56
2022/11/25 05:23:41;;;;;;;23.13;21.00;;;;;;;;;;5077544;28;20200;-57
2022/11/25 05:26:07;;;;;;;25.80;23.40;;;;;;;;;;5088625;28;20201;-57
2022/11/25 05:28:32;;;;;;;21.90;19.90;;;;;;;;;;5087494;28;20711;-55
2022/11/25 05:30:57;;;;;;;24.30;21.80;;;;;;;;;;5060045;28;20171;-56
2022/11/25 05:33:22;;;;;;;22.67;20.37;;;;;;;;;;5051152;28;20706;-56
2022/11/25 05:35:55;;;;;;;23.27;21.07;;;;;;;;;;5062865;28;20176;-56
2022/11/25 05:38:20;;;;;;;26.07;23.47;;;;;;;;;;5051349;28;20186;-55
2022/11/25 05:40:45;;;;;;;25.70;22.30;;;;;;;;;;5051424;28;20623;-57
2022/11/25 05:43:10;;;;;;;24.00;21.67;;;;;;;;;;5051526;28;20203;-57
2022/11/25 05:45:37;;;;;;;23.97;21.63;;;;;;;;;;5059030;28;20171;-57
2022/11/25 05:48:02;;;;;;;23.47;20.97;;;;;;;;;;5060504;28;20234;-57
2022/11/25 05:50:27;;;;;;;24.57;22.10;;;;;;;;;;5049842;28;20605;-57
2022/11/25 05:52:52;;;;;;;27.33;22.13;;;;;;;;;;5055886;28;20179;-62
2022/11/25 05:55:18;;;;;;;23.53;21.23;;;;;;;;;;5061483;28;20181;-58
2022/11/25 05:57:43;;;;;;;25.17;21.63;;;;;;;;;;5052260;28;20241;-57
2022/11/25 06:00:08;;;;;;;27.60;21.80;;;;;;;;;;5068661;28;20188;-56
2022/11/25 06:02:33;;;;;;;24.40;21.90;;;;;;;;;;5059325;28;20242;-56
2022/11/25 06:04:59;;;;;;;24.67;22.00;;;;;;;;;;5059470;28;20242;-57
2022/11/25 06:07:24;;;;;;;24.57;22.10;;;;;;;;;;5063546;28;20552;-57
2022/11/25 06:09:49;;;;;;;25.27;22.87;;;;;;;;;;5066640;28;20171;-57
2022/11/25 06:12:14;;;;;;;26.10;23.07;;;;;;;;;;5054400;28;20677;-56
2022/11/25 06:14:39;;;;;;;27.17;24.17;;;;;;;;;;5054039;28;20208;-57
2022/11/25 06:17:05;;;;;;;31.50;27.95;;;;;;;;;;5056320;28;20186;-57
2022/11/25 06:19:30;;;;;;;29.40;26.30;;;;;;;;;;5056264;28;20359;-57
2022/11/25 06:21:55;;;;;;;29.30;26.13;;;;;;;;;;5067823;28;20180;-57
2022/11/25 06:24:20;;;;;;;25.92;22.80;;;;;;;;;;5067136;28;20179;-55
2022/11/25 06:26:45;;;;;;;27.90;25.00;;;;;;;;;;5071692;28;20639;-55
2022/11/25 06:29:10;;;;;;;29.10;26.00;;;;;;;;;;5052877;28;20735;-54
2022/11/25 06:31:36;;;;;;;27.00;24.38;;;;;;;;;;5061303;28;20186;-55
2022/11/25 06:34:01;;;;;;;31.23;27.80;;;;;;;;;;5073035;28;20831;-55
2022/11/25 06:36:26;;;;;;;26.00;23.47;;;;;;;;;;5072822;28;20173;-55
2022/11/25 06:38:52;;;;;;;29.30;26.13;;;;;;;;;;5072703;28;20165;-55
2022/11/25 06:41:18;;;;;;;28.87;25.93;;;;;;;;;;5070637;28;20868;-54
2022/11/25 06:43:43;;;;;;;23.93;21.43;;;;;;;;;;5066375;28;20637;-57
2022/11/25 06:46:10;;;;;;;26.57;22.50;;;;;;;;;;5055998;28;20657;-56
2022/11/25 06:48:36;;;;;;;25.90;23.30;;;;;;;;;;5083108;28;20706;-56
2022/11/25 06:51:04;;;;;;;28.90;25.13;;;;;;;;;;5073751;28;20649;-56
2022/11/25 06:53:30;;;;;;;28.93;25.93;;;;;;;;;;5059664;28;20201;-58
2022/11/25 06:56:00;;;;;;;27.80;25.17;;;;;;;;;;5057367;28;20620;-57
2022/11/25 06:58:25;;;;;;;27.07;24.27;;;;;;;;;;5054639;28;21075;-56
2022/11/25 07:00:50;;;;;;;29.37;26.17;;;;;;;;;;5055673;28;20981;-55
2022/11/25 07:03:16;;;;;;;29.90;25.97;;;;;;;;;;5065824;28;20202;-56
2022/11/25 07:05:41;;;;;;;26.70;23.80;;;;;;;;;;5070898;28;20173;-56
2022/11/25 07:08:06;;;;;;;25.08;22.42;;;;;;;;;;5070826;28;20198;-55
2022/11/25 07:10:32;;;;;;;27.47;24.53;;;;;;;;;;5068350;28;20175;-55
2022/11/25 07:12:58;;;;;;;28.30;25.30;;;;;;;;;;5066865;28;20218;-55
2022/11/25 07:15:23;;;;;;;30.07;25.37;;;;;;;;;;5061534;28;20640;-57
2022/11/25 07:17:48;;;;;;;25.93;23.40;;;;;;;;;;5071052;28;20219;-57
2022/11/25 07:20:13;;;;;;;29.35;25.17;;;;;;;;;;5066500;28;20176;-57
2022/11/25 07:22:38;;;;;;;27.83;24.03;;;;;;;;;;5052922;28;20233;-56
2022/11/25 07:25:04;;;;;;;31.40;25.52;;;;;;;;;;5057433;28;20165;-56
2022/11/25 07:27:29;;;;;;;26.30;23.50;;;;;;;;;;5062442;28;20179;-57
2022/11/25 07:29:54;;;;;;;28.67;25.67;;;;;;;;;;5056813;28;20259;-56
2022/11/25 07:32:19;;;;;;;30.97;27.27;;;;;;;;;;5051642;28;20649;-56
2022/11/25 07:34:44;;;;;;;36.13;28.90;;;;;;;;;;5066866;28;20263;-55
2022/11/25 07:37:09;;;;;;;33.03;28.23;;;;;;;;;;5051442;28;20647;-56
2022/11/25 07:39:35;;;;;;;32.40;28.77;;;;;;;;;;5051486;28;20190;-59
2022/11/25 07:42:00;;;;;;;34.10;30.40;;;;;;;;;;5051580;28;20629;-56
2022/11/25 07:44:25;;;;;;;34.70;28.45;;;;;;;;;;5071370;28;20181;-56
2022/11/25 07:46:51;;;;;;;31.73;26.27;;;;;;;;;;5071422;28;20390;-57
2022/11/25 07:49:17;;;;;;;52.53;31.70;;;;;;;;;;5071731;28;20525;-56
2022/11/25 07:51:46;;;;;;;32.37;28.33;;;;;;;;;;5071555;28;20545;-55
2022/11/25 07:54:12;;;;;;;49.80;31.83;;;;;;;;;;5069859;28;20614;-56
2022/11/25 07:56:38;;;;;;;32.43;28.40;;;;;;;;;;5071588;28;20581;-56
2022/11/25 07:59:04;;;;;;;32.87;27.70;;;;;;;;;;5071558;28;20190;-56
2022/11/25 08:01:29;;;;;;;37.60;29.37;;;;;;;;;;5071376;28;20594;-56
2022/11/25 08:03:55;;;;;;;35.07;28.70;;;;;;;;;;5063553;28;20197;-56
2022/11/25 08:06:24;;;;;;;30.93;27.50;;;;;;;;;;5051452;28;20179;-56
2022/11/25 08:08:51;;;;;;;50.40;30.00;;;;;;;;;;5051309;28;20176;-56
2022/11/25 08:11:18;;;;;;;38.57;26.73;;;;;;;;;;5051315;28;20570;-56
2022/11/25 08:13:44;;;;;;;35.90;28.10;;;;;;;;;;5050763;28;20718;-56
2022/11/25 08:16:10;;;;;;;32.10;27.93;;;;;;;;;;5070758;28;20774;-56
2022/11/25 08:18:35;;;;;;;38.33;29.80;;;;;;;;;;5070742;28;20269;-57
2022/11/25 08:21:03;;;;;;;37.70;28.40;;;;;;;;;;5071022;28;20636;-56
2022/11/25 08:23:29;;;;;;;41.57;31.50;;;;;;;;;;5067264;28;20301;-56
2022/11/25 08:25:54;;;;;;;39.87;30.67;;;;;;;;;;5052356;28;20804;-56
2022/11/25 08:28:20;;;;;;;34.07;28.10;;;;;;;;;;5050594;28;20200;-56
2022/11/25 08:30:45;;;;;;;35.70;28.43;;;;;;;;;;5050531;28;20680;-56
2022/11/25 08:33:11;;;;;;;35.63;29.00;;;;;;;;;;5050702;28;20184;-56
2022/11/25 08:35:36;;;;;;;38.53;30.43;;;;;;;;;;5051009;28;20184;-56
2022/11/25 08:38:05;;;;;;;35.07;30.23;;;;;;;;;;5070189;28;20189;-56
2022/11/25 08:40:31;;;;;;;33.27;28.30;;;;;;;;;;5070338;28;20205;-59
2022/11/25 08:42:56;;;;;;;30.80;27.57;;;;;;;;;;5070510;28;20671;-57
2022/11/25 08:45:21;;;;;;;30.33;26.00;;;;;;;;;;5058529;28;21199;-56
2022/11/25 08:47:46;;;;;;;38.30;30.40;;;;;;;;;;5070433;28;20172;-55
2022/11/25 08:50:13;;;;;;;31.67;28.37;;;;;;;;;;5070525;28;20538;-56
2022/11/25 08:52:38;;;;;;;35.50;29.67;;;;;;;;;;5052861;28;20190;-57
2022/11/25 08:55:03;;;;;;;29.87;26.43;;;;;;;;;;5048760;28;21211;-56
2022/11/25 08:57:28;;;;;;;36.70;31.73;;;;;;;;;;5050564;28;20206;-56
2022/11/25 08:59:53;;;;;;;35.80;30.17;;;;;;;;;;5050461;28;20601;-56
2022/11/25 09:02:19;;;;;;;33.43;28.37;;;;;;;;;;5058515;28;20209;-57
2022/11/25 09:04:44;;;;;;;33.57;29.33;;;;;;;;;;5070620;28;20178;-56
2022/11/25 09:07:09;;;;;;;32.50;29.00;;;;;;;;;;5070441;28;20171;-56
2022/11/25 09:09:34;;;;;;;32.57;29.00;;;;;;;;;;5070535;28;20793;-56
2022/11/25 09:12:00;;;;;;;35.63;28.27;;;;;;;;;;5064838;28;20796;-56
2022/11/25 09:14:25;;;;;;;33.13;25.73;;;;;;;;;;5050653;28;20219;-56
2022/11/25 09:16:50;;;;;;;29.27;24.90;;;;;;;;;;5050084;28;20173;-57
2022/11/25 09:19:15;;;;;;;30.83;27.43;;;;;;;;;;5050432;28;20273;-57
2022/11/25 09:21:42;;;;;;;31.97;27.50;;;;;;;;;;5050353;28;20734;-56
2022/11/25 09:24:07;;;;;;;32.33;28.50;;;;;;;;;;5066940;28;20285;-57
2022/11/25 09:26:34;;;;;;;29.03;23.60;;;;;;;;;;5070404;28;20659;-56
2022/11/25 09:28:59;;;;;;;33.13;29.53;;;;;;;;;;5070309;28;20251;-57
2022/11/25 09:31:25;;;;;;;29.73;26.67;;;;;;;;;;5070002;28;20691;-56
2022/11/25 09:33:50;;;;;;;31.23;28.03;;;;;;;;;;5068280;28;20179;-57
2022/11/25 09:36:16;;;;;;;29.73;25.70;;;;;;;;;;5070251;28;20551;-57
2022/11/25 09:38:44;;;;;;;30.33;26.80;;;;;;;;;;5070266;28;20248;-57
2022/11/25 09:47:24;;;;;;;29.70;26.33;;;;;;;;;;5069772;28;20561;-56
2022/11/25 09:49:56;;;;;;;33.77;26.47;;;;;;;;;;5069827;28;20646;-56
2022/11/25 09:52:47;;;;;;;28.90;25.70;;;;;;;;;;5068580;28;20640;-56
2022/11/25 09:55:15;;;;;;;31.33;28.03;;;;;;;;;;5048903;28;20598;-58
2022/11/25 09:57:48;;;;;;;29.77;26.63;;;;;;;;;;5049932;28;20585;-57
2022/11/25 10:00:15;;;;;;;27.57;24.67;;;;;;;;;;5051645;28;20590;-57
2022/11/25 10:02:42;;;;;;;30.97;27.60;;;;;;;;;;5053508;28;20724;-56
2022/11/25 10:05:13;;;;;;;31.80;28.90;;;;;;;;;;5072463;28;20595;-56
2022/11/25 10:07:41;;;;;;;29.60;26.57;;;;;;;;;;5073702;28;21139;-56
2022/11/25 10:10:10;;;;;;;30.43;27.23;;;;;;;;;;5073260;28;20598;-57
2022/11/25 10:12:42;;;;;;;30.17;27.30;;;;;;;;;;5067234;28;21237;-56
2022/11/25 10:15:13;;;;;;;25.63;23.13;;;;;;;;;;5053196;28;20597;-57
2022/11/25 10:17:49;;;;;;;31.07;28.27;;;;;;;;;;5053491;28;20679;-56
2022/11/25 10:20:24;;;;;;;29.87;27.33;;;;;;;;;;5053704;28;20696;-56
2022/11/25 10:22:51;;;;;;;29.33;26.37;;;;;;;;;;5055726;28;20663;-57
2022/11/25 10:25:21;;;;;;;27.67;25.27;;;;;;;;;;5073307;28;20595;-57
2022/11/25 10:27:49;;;;;;;27.83;25.23;;;;;;;;;;5073192;28;21129;-57
2022/11/25 10:30:16;;;;;;;28.70;26.10;;;;;;;;;;5073378;28;20586;-57
2022/11/25 10:32:43;;;;;;;27.20;24.80;;;;;;;;;;5062521;28;20610;-56
2022/11/25 10:35:14;;;;;;;28.23;25.63;;;;;;;;;;5070840;28;20650;-56
2022/11/25 10:37:41;;;;;;;26.40;24.00;;;;;;;;;;5073305;28;20569;-56
2022/11/25 10:40:12;;;;;;;25.70;23.53;;;;;;;;;;5072914;28;20689;-55
2022/11/25 10:42:37;;;;;;;25.30;23.03;;;;;;;;;;5070810;28;20727;-57
2022/11/25 10:45:07;;;;;;;26.77;24.27;;;;;;;;;;5061913;28;21318;-56
2022/11/25 10:48:00;;;;;;;27.67;25.07;;;;;;;;;;5056479;28;20174;-57
2022/11/25 10:50:28;;;;;;;26.20;23.90;;;;;;;;;;5073037;28;21122;-55
2022/11/25 10:52:53;;;;;;;27.50;25.10;;;;;;;;;;5068952;28;21226;-56
2022/11/25 10:55:24;;;;;;;25.80;23.40;;;;;;;;;;5072997;28;20696;-54
2022/11/25 10:57:49;;;;;;;26.00;23.50;;;;;;;;;;5072804;28;20184;-57
2022/11/25 11:00:35;;;;;;;23.93;21.83;;;;;;;;;;5072655;28;20579;-55
2022/11/25 11:03:12;;;;;;;24.83;22.63;;;;;;;;;;5072230;28;20197;-56
2022/11/25 11:05:42;;;;;;;25.17;22.87;;;;;;;;;;5071467;28;20614;-57
2022/11/25 11:08:11;;;;;;;25.63;23.33;;;;;;;;;;5072268;28;21042;-57
2022/11/25 11:10:36;;;;;;;25.00;22.90;;;;;;;;;;5071646;28;20642;-56
2022/11/25 11:13:03;;;;;;;26.27;23.77;;;;;;;;;;5071491;28;20606;-56
2022/11/25 11:15:32;;;;;;;27.10;24.80;;;;;;;;;;5070408;28;20202;-55
2022/11/25 11:18:33;;;;;;;27.37;24.80;;;;;;;;;;5072162;28;20658;-56
2022/11/25 11:20:59;;;;;;;27.00;24.60;;;;;;;;;;5069176;28;20597;-55
2022/11/25 11:23:24;;;;;;;25.77;23.50;;;;;;;;;;5071688;28;20647;-56
2022/11/25 11:25:55;;;;;;;24.87;22.57;;;;;;;;;;5070347;28;20177;-55
2022/11/25 11:28:35;;;;;;;24.93;22.63;;;;;;;;;;5071593;28;20671;-56
2022/11/25 11:31:01;;;;;;;22.13;20.43;;;;;;;;;;5071672;28;21240;-56
2022/11/25 11:33:32;;;;;;;22.17;20.37;;;;;;;;;;5069685;28;20682;-55
2022/11/25 11:36:03;;;;;;;23.00;20.90;;;;;;;;;;5070044;28;20216;-56
2022/11/25 11:38:34;;;;;;;23.53;21.57;;;;;;;;;;5072002;28;20599;-55
2022/11/25 11:41:18;;;;;;;23.20;21.07;;;;;;;;;;5071412;28;20598;-56
2022/11/25 11:43:58;;;;;;;21.67;19.43;;;;;;;;;;5071731;28;20648;-56
2022/11/25 11:46:31;;;;;;;22.53;20.67;;;;;;;;;;5070135;28;20601;-55
2022/11/25 11:49:02;;;;;;;22.43;20.20;;;;;;;;;;5064381;28;20598;-56
2022/11/25 11:51:42;;;;;;;20.63;18.77;;;;;;;;;;5049558;28;20628;-57
2022/11/25 11:54:20;;;;;;;21.20;19.20;;;;;;;;;;5051903;28;20936;-56
2022/11/25 11:56:48;;;;;;;21.10;19.27;;;;;;;;;;5051546;28;20681;-56
2022/11/25 11:59:13;;;;;;;20.37;18.57;;;;;;;;;;5051236;28;20602;-56
2022/11/25 12:01:56;;;;;;;19.90;17.90;;;;;;;;;;5051219;28;20634;-56
2022/11/25 12:04:30;;;;;;;19.87;18.13;;;;;;;;;;5051459;28;20206;-56
2022/11/25 12:07:13;;;;;;;19.13;17.43;;;;;;;;;;5051298;28;20640;-56
2022/11/25 12:09:45;;;;;;;21.10;19.00;;;;;;;;;;5056008;28;20601;-57
2022/11/25 12:12:14;;;;;;;20.87;19.07;;;;;;;;;;5070885;28;20705;-57
2022/11/25 12:14:47;;;;;;;19.60;17.87;;;;;;;;;;5071473;28;20751;-57
2022/11/25 12:17:17;;;;;;;19.30;17.53;;;;;;;;;;5070664;28;20681;-55
2022/11/25 12:19:49;;;;;;;20.63;18.77;;;;;;;;;;5069800;28;20597;-56
2022/11/25 12:22:24;;;;;;;19.37;17.67;;;;;;;;;;5050405;28;20588;-57
2022/11/25 12:24:57;;;;;;;19.03;17.53;;;;;;;;;;5051234;28;21244;-56
2022/11/25 12:27:25;;;;;;;19.03;17.37;;;;;;;;;;5051182;28;20579;-55
2022/11/25 12:30:01;;;;;;;19.87;18.20;;;;;;;;;;5050804;28;20738;-55
2022/11/25 12:32:44;;;;;;;20.60;18.80;;;;;;;;;;5068459;28;20606;-56
2022/11/25 12:35:09;;;;;;;21.03;19.13;;;;;;;;;;5070787;28;20600;-56
2022/11/25 12:37:37;;;;;;;19.77;18.17;;;;;;;;;;5071129;28;20588;-56
2022/11/25 12:40:06;;;;;;;21.57;19.63;;;;;;;;;;5071000;28;20178;-55
2022/11/25 12:42:32;;;;;;;20.53;18.73;;;;;;;;;;5057346;28;20637;-55
2022/11/25 12:45:03;;;;;;;21.03;19.23;;;;;;;;;;5050165;28;20614;-56
2022/11/25 12:47:29;;;;;;;20.87;19.07;;;;;;;;;;5050789;28;20575;-55
2022/11/25 12:49:54;;;;;;;19.87;18.37;;;;;;;;;;5050707;28;20576;-55
2022/11/25 12:52:43;;;;;;;20.53;18.53;;;;;;;;;;5056784;28;20176;-56
2022/11/25 12:55:21;;;;;;;19.87;18.17;;;;;;;;;;5069892;28;20671;-57
2022/11/25 12:57:58;;;;;;;19.73;17.90;;;;;;;;;;5070672;28;20986;-57
2022/11/25 13:00:26;;;;;;;19.97;18.27;;;;;;;;;;5070882;28;20600;-55
2022/11/25 13:02:58;;;;;;;20.90;18.83;;;;;;;;;;5068354;28;20653;-56
2022/11/25 13:05:41;;;;;;;20.57;18.87;;;;;;;;;;5070390;28;20594;-56
2022/11/25 13:08:25;;;;;;;20.43;18.43;;;;;;;;;;5070302;28;20574;-57
2022/11/25 13:11:02;;;;;;;19.97;18.10;;;;;;;;;;5070597;28;20565;-56
2022/11/25 13:13:27;;;;;;;21.33;19.33;;;;;;;;;;5068766;28;21079;-56
2022/11/25 13:15:53;;;;;;;18.83;17.33;;;;;;;;;;5070301;28;20668;-56
2022/11/25 13:18:21;;;;;;;18.93;17.13;;;;;;;;;;5070303;28;20235;-57
2022/11/25 13:20:51;;;;;;;19.90;18.07;;;;;;;;;;5063235;28;21205;-54
2022/11/25 13:23:16;;;;;;;19.60;18.00;;;;;;;;;;5050649;28;20639;-56
2022/11/25 13:25:43;;;;;;;19.25;17.55;;;;;;;;;;5055996;28;20582;-55
2022/11/25 13:28:27;;;;;;;19.13;17.20;;;;;;;;;;5069855;28;20181;-56
2022/11/25 13:30:52;;;;;;;19.77;17.97;;;;;;;;;;5070304;28;20739;-57
2022/11/25 13:33:23;;;;;;;18.20;16.60;;;;;;;;;;5069876;28;20681;-55
2022/11/25 13:35:51;;;;;;;18.23;16.53;;;;;;;;;;5054196;28;20180;-55
2022/11/25 13:38:28;;;;;;;17.50;15.70;;;;;;;;;;5058654;28;20693;-56
2022/11/25 13:41:11;;;;;;;18.13;16.43;;;;;;;;;;5067921;28;20605;-56
2022/11/25 13:43:50;;;;;;;18.47;16.67;;;;;;;;;;5072270;28;20702;-55
2022/11/25 13:46:36;;;;;;;17.60;16.00;;;;;;;;;;5069116;28;21142;-56
2022/11/25 13:49:01;;;;;;;17.83;16.13;;;;;;;;;;5087190;28;20717;-56
2022/11/25 13:51:26;;;;;;;18.70;16.90;;;;;;;;;;5062561;28;20700;-56
2022/11/25 13:53:59;;;;;;;18.30;16.40;;;;;;;;;;5073642;28;20253;-56
2022/11/25 13:56:24;;;;;;;18.60;16.93;;;;;;;;;;5057416;28;20551;-55
2022/11/25 13:59:17;;;;;;;19.48;17.58;;;;;;;;;;5068565;28;20623;-56
2022/11/25 14:01:45;;;;;;;20.33;18.30;;;;;;;;;;5057809;28;20218;-56
2022/11/25 14:04:11;;;;;;;20.10;18.30;;;;;;;;;;5062223;28;20642;-56
2022/11/25 14:07:02;;;;;;;20.33;18.53;;;;;;;;;;5063225;28;20618;-57
2022/11/25 14:09:40;;;;;;;20.20;18.50;;;;;;;;;;5084919;28;20620;-55
2022/11/25 14:12:16;;;;;;;21.30;19.20;;;;;;;;;;5080251;28;21191;-55
2022/11/25 14:14:49;;;;;;;22.13;19.93;;;;;;;;;;5093951;28;20595;-55
2022/11/25 14:17:33;;;;;;;21.70;19.57;;;;;;;;;;5093838;28;20571;-55
2022/11/25 14:20:20;;;;;;;21.10;19.03;;;;;;;;;;5082383;28;20697;-55
2022/11/25 14:23:04;;;;;;;21.30;19.30;;;;;;;;;;5053106;28;21077;-56
2022/11/25 14:25:50;;;;;;;19.70;17.87;;;;;;;;;;5079057;28;20606;-55
2022/11/25 14:28:34;;;;;;;24.57;22.40;;;;;;;;;;5065343;28;21148;-56
2022/11/25 14:31:05;;;;;;;22.10;19.90;;;;;;;;;;5080304;28;20602;-57
2022/11/25 14:33:33;;;;;;;23.00;20.67;;;;;;;;;;5068441;28;21249;-56